Time;durP1;ratioP1;P1;durP2;ratioP2;P2;SDS_P1;SDS_P2;PMS_P1;PMS_P2;Temp;Humidity;BMP_temperature;BMP_pressure;BME280_temperature;BME280_humidity;BME280_pressure;Samples;Min_cycle;Max_cycle;Signal;HPM_P1;HPM_P2
2021/12/30 00:00:07;;;;;;;;;;;;;;;;;;5114641;28;19965;-85
2021/12/30 00:02:34;;;;;;;;;;;;;;;;;;5113353;28;19969;-85
2021/12/30 00:05:01;;;;;;;;;;;;;;;;;;5112590;28;20357;-85
2021/12/30 00:07:29;;;;;;;;;;;;;;;;;;5110831;28;19979;-87
2021/12/30 00:09:56;;;;;;;;;;;;;;;;;;5112388;28;19983;-86
2021/12/30 00:12:23;;;;;;;;;;;;;;;;;;5113264;28;20054;-86
2021/12/30 00:14:50;;;;;;;;;;;;;;;;;;5114435;28;20088;-86
2021/12/30 00:17:17;;;;;;;;;;;;;;;;;;5095574;28;19965;-86
2021/12/30 00:19:44;;;;;;;;;;;;;;;;;;5115636;28;20429;-86
2021/12/30 00:22:11;;;;;;;;;;;;;;;;;;5115746;28;20417;-87
2021/12/30 00:24:38;;;;;;;;;;;;;;;;;;5115007;28;20052;-86
2021/12/30 00:27:05;;;;;;;;;;;;;;;;;;5111796;28;20060;-86
2021/12/30 00:29:33;;;;;;;;;;;;;;;;;;5113764;28;20015;-86
2021/12/30 00:32:00;;;;;;;;;;;;;;;;;;5114885;28;20052;-86
2021/12/30 00:34:27;;;;;;;;;;;;;;;;;;5115713;28;20382;-88
2021/12/30 00:36:54;;;;;;;;;;;;;;;;;;5115487;28;20005;-86
2021/12/30 00:39:21;;;;;;;;;;;;;;;;;;5114788;28;20041;-87
2021/12/30 00:41:48;;;;;;;;;;;;;;;;;;5115263;28;20060;-87
2021/12/30 00:44:15;;;;;;;;;;;;;;;;;;5115148;28;19998;-86
2021/12/30 00:46:42;;;;;;;;;;;;;;;;;;5115131;28;20486;-86
2021/12/30 00:49:09;;;;;;;;;;;;;;;;;;5114831;28;20034;-86
2021/12/30 00:51:36;;;;;;;;;;;;;;;;;;5115184;28;20008;-87
2021/12/30 00:54:03;;;;;;;;;;;;;;;;;;5115001;28;20049;-87
2021/12/30 00:56:30;;;;;;;;;;;;;;;;;;5114642;28;20476;-87
2021/12/30 00:58:57;;;;;;;;;;;;;;;;;;5114982;28;19986;-86
2021/12/30 01:01:25;;;;;;;;;;;;;;;;;;5114816;28;20044;-87
2021/12/30 01:03:52;;;;;;;;;;;;;;;;;;5114948;28;20048;-86
2021/12/30 01:06:19;;;;;;;;;;;;;;;;;;5114992;28;20037;-88
2021/12/30 01:08:46;;;;;;;;;;;;;;;;;;5114176;28;20491;-86
2021/12/30 01:11:13;;;;;;;;;;;;;;;;;;5115165;28;20005;-86
2021/12/30 01:13:43;;;;;;;;;;;;;;;;;;5114490;28;20029;-87
2021/12/30 01:16:16;;;;;;;;;;;;;;;;;;5114889;28;19960;-87
2021/12/30 01:18:55;;;;;;;;;;;;;;;;;;5114417;28;20047;-86
2021/12/30 01:21:22;;;;;;;;;;;;;;;;;;5114348;28;20414;-86
2021/12/30 01:23:49;;;;;;;;;;;;;;;;;;5114664;28;20043;-86
2021/12/30 01:26:16;;;;;;;;;;;;;;;;;;5114495;28;20205;-86
2021/12/30 01:28:43;;;;;;;;;;;;;;;;;;5114009;28;20353;-86
2021/12/30 01:31:10;;;;;;;;;;;;;;;;;;5114413;28;20044;-87
2021/12/30 01:33:38;;;;;;;;;;;;;;;;;;5113855;28;20052;-86
2021/12/30 01:36:05;;;;;;;;;;;;;;;;;;5114276;28;19957;-86
2021/12/30 01:38:32;;;;;;;;;;;;;;;;;;5114004;28;20003;-87
2021/12/30 01:41:01;;;;;;;;;;;;;;;;;;5113921;28;20365;-86
2021/12/30 01:43:28;;;;;;;;;;;;;;;;;;5114056;28;19991;-86
2021/12/30 01:45:55;;;;;;;;;;;;;;;;;;5113915;28;19976;-86
2021/12/30 01:48:22;;;;;;;;;;;;;;;;;;5114086;28;20320;-86
2021/12/30 01:50:49;;;;;;;;;;;;;;;;;;5114403;28;20043;-87
2021/12/30 01:53:16;;;;;;;;;;;;;;;;;;5113990;28;19960;-86
2021/12/30 01:55:43;;;;;;;;;;;;;;;;;;5114125;28;20040;-87
2021/12/30 01:58:10;;;;;;;;;;;;;;;;;;5113919;28;20008;-86
2021/12/30 02:00:37;;;;;;;;;;;;;;;;;;5113421;28;20052;-86
2021/12/30 02:03:05;;;;;;;;;;;;;;;;;;5113881;28;20029;-86
2021/12/30 02:05:32;;;;;;;;;;;;;;;;;;5113893;28;20387;-86
2021/12/30 02:07:59;;;;;;;;;;;;;;;;;;5113961;28;20039;-87
2021/12/30 02:10:26;;;;;;;;;;;;;;;;;;5113524;28;19998;-86
2021/12/30 02:12:53;;;;;;;;;;;;;;;;;;5113678;28;20003;-86
2021/12/30 02:15:20;;;;;;;;;;;;;;;;;;5113902;28;20419;-86
2021/12/30 02:17:48;;;;;;;;;;;;;;;;;;5113763;28;19990;-86
2021/12/30 02:20:15;;;;;;;;;;;;;;;;;;5116057;28;19958;-86
2021/12/30 02:22:42;;;;;;;;;;;;;;;;;;5118438;28;20060;-87
2021/12/30 02:25:09;;;;;;;;;;;;;;;;;;5118058;28;20056;-86
2021/12/30 02:27:36;;;;;;;;;;;;;;;;;;5117796;28;20050;-87
2021/12/30 02:30:03;;;;;;;;;;;;;;;;;;5102897;28;20033;-86
2021/12/30 02:32:30;;;;;;;;;;;;;;;;;;5117898;28;19958;-86
2021/12/30 02:34:57;;;;;;;;;;;;;;;;;;5117932;28;20034;-86
2021/12/30 02:37:24;;;;;;;;;;;;;;;;;;5117761;28;20035;-86
2021/12/30 02:39:52;;;;;;;;;;;;;;;;;;5117651;28;20057;-86
2021/12/30 02:42:19;;;;;;;;;;;;;;;;;;5117466;28;20479;-86
2021/12/30 02:44:46;;;;;;;;;;;;;;;;;;5105402;28;20054;-87
2021/12/30 02:47:14;;;;;;;;;;;;;;;;;;5117890;28;20048;-86
2021/12/30 02:49:41;;;;;;;;;;;;;;;;;;5117321;28;19962;-86
2021/12/30 02:52:08;;;;;;;;;;;;;;;;;;5117376;28;20060;-86
2021/12/30 02:54:35;;;;;;;;;;;;;;;;;;5117051;28;20044;-86
2021/12/30 02:57:02;;;;;;;;;;;;;;;;;;5116613;28;20465;-86
2021/12/30 02:59:29;;;;;;;;;;;;;;;;;;5117423;28;20039;-85
2021/12/30 03:01:56;;;;;;;;;;;;;;;;;;5117006;28;20035;-86
2021/12/30 03:04:23;;;;;;;;;;;;;;;;;;5117403;28;20060;-85
2021/12/30 03:06:50;;;;;;;;;;;;;;;;;;5116922;28;20044;-85
2021/12/30 03:09:17;;;;;;;;;;;;;;;;;;5117196;28;20386;-86
2021/12/30 03:11:44;;;;;;;;;;;;;;;;;;5117296;28;20000;-85
2021/12/30 03:14:11;;;;;;;;;;;;;;;;;;5115917;28;20070;-86
2021/12/30 03:16:41;;;;;;;;;;;;;;;;;;5115792;28;20507;-85
2021/12/30 03:19:08;;;;;;;;;;;;;;;;;;5115632;28;19957;-85
2021/12/30 03:21:35;;;;;;;;;;;;;;;;;;5115775;28;20066;-86
2021/12/30 03:24:02;;;;;;;;;;;;;;;;;;5115585;28;20071;-86
2021/12/30 03:26:29;;;;;;;;;;;;;;;;;;5115635;28;20424;-85
2021/12/30 03:28:56;;;;;;;;;;;;;;;;;;5115342;28;19958;-86
2021/12/30 03:31:23;;;;;;;;;;;;;;;;;;5114944;28;20410;-86
2021/12/30 03:33:50;;;;;;;;;;;;;;;;;;5115249;28;20155;-85
2021/12/30 03:36:17;;;;;;;;;;;;;;;;;;5114695;28;20046;-85
2021/12/30 03:38:44;;;;;;;;;;;;;;;;;;5115113;28;19961;-86
2021/12/30 03:41:11;;;;;;;;;;;;;;;;;;5115151;28;20424;-85
2021/12/30 03:43:38;;;;;;;;;;;;;;;;;;5115456;28;19982;-86
2021/12/30 03:46:05;;;;;;;;;;;;;;;;;;5115464;28;20000;-86
2021/12/30 03:48:34;;;;;;;;;;;;;;;;;;5115224;28;20048;-86
2021/12/30 03:51:04;;;;;;;;;;;;;;;;;;5115337;28;19983;-86
2021/12/30 03:53:31;;;;;;;;;;;;;;;;;;5114802;28;20000;-86
2021/12/30 03:55:58;;;;;;;;;;;;;;;;;;5114989;28;20493;-85
2021/12/30 03:58:25;;;;;;;;;;;;;;;;;;5115049;28;20036;-85
2021/12/30 04:00:52;;;;;;;;;;;;;;;;;;5115051;28;20047;-86
2021/12/30 04:03:19;;;;;;;;;;;;;;;;;;5114622;28;19967;-86
2021/12/30 04:05:46;;;;;;;;;;;;;;;;;;5115098;28;20062;-86
2021/12/30 04:08:13;;;;;;;;;;;;;;;;;;5114734;28;20466;-86
2021/12/30 04:10:40;;;;;;;;;;;;;;;;;;5115169;28;20044;-86
2021/12/30 04:13:07;;;;;;;;;;;;;;;;;;5050781;28;1830725;-85
2021/12/30 04:15:34;;;;;;;;;;;;;;;;;;5115558;28;20031;-86
2021/12/30 04:18:01;;;;;;;;;;;;;;;;;;5115604;28;20045;-86
2021/12/30 04:20:28;;;;;;;;;;;;;;;;;;5115726;28;19960;-85
2021/12/30 04:22:55;;;;;;;;;;;;;;;;;;5115630;28;20061;-86
2021/12/30 04:25:22;;;;;;;;;;;;;;;;;;5115670;28;20067;-86
2021/12/30 04:27:49;;;;;;;;;;;;;;;;;;5115367;28;20044;-85
2021/12/30 04:30:16;;;;;;;;;;;;;;;;;;5115665;28;20136;-85
2021/12/30 04:32:43;;;;;;;;;;;;;;;;;;5115441;28;20037;-86
2021/12/30 04:35:10;;;;;;;;;;;;;;;;;;5115410;28;20056;-85
2021/12/30 04:37:37;;;;;;;;;;;;;;;;;;5115318;28;20403;-85
2021/12/30 04:40:04;;;;;;;;;;;;;;;;;;5115509;28;20009;-85
2021/12/30 04:42:31;;;;;;;;;;;;;;;;;;5114290;28;19979;-85
2021/12/30 04:44:58;;;;;;;;;;;;;;;;;;5115241;28;20008;-85
2021/12/30 04:47:25;;;;;;;;;;;;;;;;;;5115097;28;20058;-84
2021/12/30 04:49:53;;;;;;;;;;;;;;;;;;5115571;28;19954;-86
2021/12/30 04:52:20;;;;;;;;;;;;;;;;;;5114974;28;20016;-84
2021/12/30 04:54:48;;;;;;;;;;;;;;;;;;5114989;28;20431;-86
2021/12/30 04:57:15;;;;;;;;;;;;;;;;;;5114637;28;20038;-85
2021/12/30 04:59:42;;;;;;;;;;;;;;;;;;5114692;28;20047;-84
2021/12/30 05:02:09;;;;;;;;;;;;;;;;;;5114592;28;20046;-85
2021/12/30 05:04:36;;;;;;;;;;;;;;;;;;5114996;28;20029;-83
2021/12/30 05:07:03;;;;;;;;;;;;;;;;;;5114773;28;20007;-86
2021/12/30 05:09:31;;;;;;;;;;;;;;;;;;5114376;28;20546;-86
2021/12/30 05:11:58;;;;;;;;;;;;;;;;;;5114678;28;19983;-86
2021/12/30 05:14:25;;;;;;;;;;;;;;;;;;5114224;28;20080;-86
2021/12/30 05:16:53;;;;;;;;;;;;;;;;;;5114264;28;20465;-86
2021/12/30 05:19:20;;;;;;;;;;;;;;;;;;5114828;28;20030;-84
2021/12/30 05:21:47;;;;;;;;;;;;;;;;;;5114933;28;20048;-84
2021/12/30 05:24:15;;;;;;;;;;;;;;;;;;5114629;28;20064;-85
2021/12/30 05:26:42;;;;;;;;;;;;;;;;;;5114595;28;19961;-85
2021/12/30 05:29:09;;;;;;;;;;;;;;;;;;5114414;28;20047;-85
2021/12/30 05:31:36;;;;;;;;;;;;;;;;;;5114624;28;19958;-85
2021/12/30 05:34:03;;;;;;;;;;;;;;;;;;5114364;28;20056;-85
2021/12/30 05:36:30;;;;;;;;;;;;;;;;;;5114216;28;20048;-85
2021/12/30 05:38:57;;;;;;;;;;;;;;;;;;5114088;28;20416;-84
2021/12/30 05:41:27;;;;;;;;;;;;;;;;;;5114209;28;19999;-84
2021/12/30 05:43:54;;;;;;;;;;;;;;;;;;5114035;28;20023;-84
2021/12/30 05:46:21;;;;;;;;;;;;;;;;;;5114338;28;19959;-85
2021/12/30 05:48:48;;;;;;;;;;;;;;;;;;5114051;28;20056;-84
2021/12/30 05:51:15;;;;;;;;;;;;;;;;;;5113896;28;20039;-84
2021/12/30 05:53:42;;;;;;;;;;;;;;;;;;5113563;28;20483;-84
2021/12/30 05:56:09;;;;;;;;;;;;;;;;;;5113832;28;19960;-84
2021/12/30 05:58:36;;;;;;;;;;;;;;;;;;5113638;28;20043;-84
2021/12/30 06:01:03;;;;;;;;;;;;;;;;;;5114119;28;20050;-84
2021/12/30 06:03:30;;;;;;;;;;;;;;;;;;5113526;28;20057;-84
2021/12/30 06:05:57;;;;;;;;;;;;;;;;;;5114177;28;20467;-84
2021/12/30 06:08:24;;;;;;;;;;;;;;;;;;5113377;28;20037;-84
2021/12/30 06:10:51;;;;;;;;;;;;;;;;;;5113351;28;19961;-83
2021/12/30 06:13:19;;;;;;;;;;;;;;;;;;5113430;28;20079;-84
2021/12/30 06:15:46;;;;;;;;;;;;;;;;;;5113563;28;20420;-83
2021/12/30 06:18:13;;;;;;;;;;;;;;;;;;5113933;28;20041;-84
2021/12/30 06:20:40;;;;;;;;;;;;;;;;;;5113947;28;20046;-83
2021/12/30 06:23:06;;;;;;;;;;;;;;;;;;5114129;28;20072;-89
2021/12/30 06:25:33;;;;;;;;;;;;;;;;;;5113783;28;20055;-86
2021/12/30 06:28:00;;;;;;;;;;;;;;;;;;5113691;28;20055;-84
2021/12/30 06:30:27;;;;;;;;;;;;;;;;;;5113868;28;19967;-86
2021/12/30 06:32:54;;;;;;;;;;;;;;;;;;5113577;28;20037;-83
2021/12/30 06:35:22;;;;;;;;;;;;;;;;;;5113707;28;20063;-84
2021/12/30 06:37:49;;;;;;;;;;;;;;;;;;5113581;28;19960;-84
2021/12/30 06:40:16;;;;;;;;;;;;;;;;;;5113845;28;20005;-83
2021/12/30 06:42:43;;;;;;;;;;;;;;;;;;5113364;28;20005;-84
2021/12/30 06:45:10;;;;;;;;;;;;;;;;;;5113689;28;20477;-84
2021/12/30 06:47:37;;;;;;;;;;;;;;;;;;5113154;28;20394;-84
2021/12/30 06:50:04;;;;;;;;;;;;;;;;;;5113604;28;19991;-83
2021/12/30 06:52:31;;;;;;;;;;;;;;;;;;5113171;28;19994;-83
2021/12/30 06:54:58;;;;;;;;;;;;;;;;;;5113689;28;20066;-83
2021/12/30 06:57:25;;;;;;;;;;;;;;;;;;5112785;28;19957;-84
2021/12/30 06:59:52;;;;;;;;;;;;;;;;;;5113937;28;20033;-83
2021/12/30 07:02:19;;;;;;;;;;;;;;;;;;5113280;28;19959;-83
2021/12/30 07:04:46;;;;;;;;;;;;;;;;;;5112776;28;20070;-83
2021/12/30 07:07:13;;;;;;;;;;;;;;;;;;5116482;28;20405;-85
2021/12/30 07:09:40;;;;;;;;;;;;;;;;;;5117036;28;20000;-83
2021/12/30 07:12:07;;;;;;;;;;;;;;;;;;5117366;28;20069;-83
2021/12/30 07:14:34;;;;;;;;;;;;;;;;;;5116752;28;20083;-83
2021/12/30 07:17:01;;;;;;;;;;;;;;;;;;5116765;28;20486;-83
2021/12/30 07:19:28;;;;;;;;;;;;;;;;;;5116832;28;20062;-82
2021/12/30 07:21:55;;;;;;;;;;;;;;;;;;5117129;28;20045;-84
2021/12/30 07:24:22;;;;;;;;;;;;;;;;;;5116825;28;20071;-83
2021/12/30 07:26:49;;;;;;;;;;;;;;;;;;5116820;28;20083;-83
2021/12/30 07:29:16;;;;;;;;;;;;;;;;;;5116821;28;20033;-83
2021/12/30 07:31:43;;;;;;;;;;;;;;;;;;5117250;28;20048;-84
2021/12/30 07:34:10;;;;;;;;;;;;;;;;;;5116375;28;20047;-84
2021/12/30 07:36:37;;;;;;;;;;;;;;;;;;5116623;28;20051;-84
2021/12/30 07:39:04;;;;;;;;;;;;;;;;;;5116634;28;20503;-85
2021/12/30 07:41:31;;;;;;;;;;;;;;;;;;5116446;28;20418;-83
2021/12/30 07:43:58;;;;;;;;;;;;;;;;;;5115834;28;20016;-83
2021/12/30 07:46:25;;;;;;;;;;;;;;;;;;5116154;28;19962;-83
2021/12/30 07:48:52;;;;;;;;;;;;;;;;;;5116044;28;20498;-84
2021/12/30 07:51:19;;;;;;;;;;;;;;;;;;5116259;28;20048;-83
2021/12/30 07:53:46;;;;;;;;;;;;;;;;;;5116110;28;19961;-83
2021/12/30 07:56:13;;;;;;;;;;;;;;;;;;5115956;28;20052;-83
2021/12/30 07:58:40;;;;;;;;;;;;;;;;;;5116147;28;20459;-83
2021/12/30 08:01:07;;;;;;;;;;;;;;;;;;5116192;28;19964;-83
2021/12/30 08:03:34;;;;;;;;;;;;;;;;;;5115878;28;20075;-83
2021/12/30 08:06:01;;;;;;;;;;;;;;;;;;5116161;28;20066;-83
2021/12/30 08:08:28;;;;;;;;;;;;;;;;;;5115731;28;20002;-82
2021/12/30 08:10:55;;;;;;;;;;;;;;;;;;5115710;28;20377;-82
2021/12/30 08:13:23;;;;;;;;;;;;;;;;;;5115569;28;20056;-83
2021/12/30 08:15:50;;;;;;;;;;;;;;;;;;5116011;28;20068;-84
2021/12/30 08:18:17;;;;;;;;;;;;;;;;;;5114684;28;20042;-83
2021/12/30 08:20:45;;;;;;;;;;;;;;;;;;5116040;28;20055;-84
2021/12/30 08:23:12;;;;;;;;;;;;;;;;;;5115327;28;19962;-84
2021/12/30 08:25:38;;;;;;;;;;;;;;;;;;5115414;28;20017;-82
2021/12/30 08:28:05;;;;;;;;;;;;;;;;;;5115685;28;20009;-84
2021/12/30 08:30:32;;;;;;;;;;;;;;;;;;5115401;28;20449;-82
2021/12/30 08:32:59;;;;;;;;;;;;;;;;;;5115478;28;20393;-83
2021/12/30 08:35:27;;;;;;;;;;;;;;;;;;5115211;28;20062;-83
2021/12/30 08:37:55;;;;;;;;;;;;;;;;;;5115411;28;19962;-82
2021/12/30 08:40:22;;;;;;;;;;;;;;;;;;5115223;28;20339;-83
2021/12/30 08:42:49;;;;;;;;;;;;;;;;;;5115402;28;20046;-82
2021/12/30 08:45:16;;;;;;;;;;;;;;;;;;5114498;28;20002;-83
2021/12/30 08:47:43;;;;;;;;;;;;;;;;;;5115337;28;20046;-82
2021/12/30 08:50:10;;;;;;;;;;;;;;;;;;5115245;28;20065;-82
2021/12/30 08:52:37;;;;;;;;;;;;;;;;;;5114713;28;19968;-83
2021/12/30 08:55:05;;;;;;;;;;;;;;;;;;5115112;28;20053;-84
2021/12/30 08:57:32;;;;;;;;;;;;;;;;;;5114163;28;19962;-83
2021/12/30 09:00:00;;;;;;;;;;;;;;;;;;5114267;28;20440;-83
2021/12/30 09:02:27;;;;;;;;;;;;;;;;;;5112647;28;20014;-83
2021/12/30 09:04:53;;;;;;;;;;;;;;;;;;5114649;28;20071;-83
2021/12/30 09:07:20;;;;;;;;;;;;;;;;;;5114874;28;20064;-83
2021/12/30 09:09:47;;;;;;;;;;;;;;;;;;5114941;28;20056;-83
2021/12/30 09:12:14;;;;;;;;;;;;;;;;;;5114589;28;20457;-84
2021/12/30 09:14:41;;;;;;;;;;;;;;;;;;5114512;28;20143;-85
2021/12/30 09:17:08;;;;;;;;;;;;;;;;;;5114501;28;20021;-83
2021/12/30 09:19:35;;;;;;;;;;;;;;;;;;5114757;28;20016;-83
2021/12/30 09:22:02;;;;;;;;;;;;;;;;;;5114592;28;20056;-84
2021/12/30 09:24:29;;;;;;;;;;;;;;;;;;5114454;28;20554;-83
2021/12/30 09:26:56;;;;;;;;;;;;;;;;;;5114280;28;20053;-83
2021/12/30 09:29:23;;;;;;;;;;;;;;;;;;5114410;28;20010;-83
2021/12/30 09:31:50;;;;;;;;;;;;;;;;;;5114530;28;19990;-84
2021/12/30 09:34:17;;;;;;;;;;;;;;;;;;5113827;28;20473;-84
2021/12/30 09:36:44;;;;;;;;;;;;;;;;;;5114062;28;20068;-83
2021/12/30 09:39:11;;;;;;;;;;;;;;;;;;5114225;28;20477;-83
2021/12/30 09:41:39;;;;;;;;;;;;;;;;;;5114614;28;20007;-83
2021/12/30 09:44:06;;;;;;;;;;;;;;;;;;5113976;28;20456;-84
2021/12/30 09:46:33;;;;;;;;;;;;;;;;;;5114397;28;19965;-83
2021/12/30 09:49:00;;;;;;;;;;;;;;;;;;5113797;28;20049;-84
2021/12/30 09:51:27;;;;;;;;;;;;;;;;;;5114088;28;20055;-84
2021/12/30 09:53:54;;;;;;;;;;;;;;;;;;5114124;28;20101;-83
2021/12/30 09:56:21;;;;;;;;;;;;;;;;;;5113914;28;20041;-84
2021/12/30 09:58:48;;;;;;;;;;;;;;;;;;5114279;28;19998;-85
2021/12/30 10:01:15;;;;;;;;;;;;;;;;;;5114242;28;20066;-84
2021/12/30 10:03:42;;;;;;;;;;;;;;;;;;5113717;28;20062;-83
2021/12/30 10:06:09;;;;;;;;;;;;;;;;;;5113839;28;19990;-85
2021/12/30 10:08:40;;;;;;;;;;;;;;;;;;5113640;28;20045;-83
2021/12/30 10:11:11;;;;;;;;;;;;;;;;;;5113931;28;20362;-83
2021/12/30 10:13:41;;;;;;;;;;;;;;;;;;5112001;28;20026;-86
2021/12/30 10:16:08;;;;;;;;;;;;;;;;;;5113823;28;19961;-83
2021/12/30 10:18:35;;;;;;;;;;;;;;;;;;5112398;28;19989;-82
2021/12/30 10:21:02;;;;;;;;;;;;;;;;;;5113725;28;20434;-83
2021/12/30 10:23:29;;;;;;;;;;;;;;;;;;5113906;28;20069;-83
2021/12/30 10:25:56;;;;;;;;;;;;;;;;;;5113241;28;20015;-83
2021/12/30 10:28:23;;;;;;;;;;;;;;;;;;5113951;28;19997;-85
2021/12/30 10:30:50;;;;;;;;;;;;;;;;;;5113812;28;19995;-84
2021/12/30 10:33:17;;;;;;;;;;;;;;;;;;5113591;28;20402;-84
2021/12/30 10:35:44;;;;;;;;;;;;;;;;;;5113821;28;20037;-86
2021/12/30 10:38:11;;;;;;;;;;;;;;;;;;5113829;28;20004;-84
2021/12/30 10:40:38;;;;;;;;;;;;;;;;;;5114059;28;20314;-84
2021/12/30 10:43:05;;;;;;;;;;;;;;;;;;5117791;28;20053;-84
2021/12/30 10:45:32;;;;;;;;;;;;;;;;;;5117211;28;20057;-82
2021/12/30 10:47:59;;;;;;;;;;;;;;;;;;5117498;28;20495;-84
2021/12/30 10:50:27;;;;;;;;;;;;;;;;;;5117609;28;20064;-83
2021/12/30 10:52:54;;;;;;;;;;;;;;;;;;5117366;28;20045;-82
2021/12/30 10:55:21;;;;;;;;;;;;;;;;;;5117461;28;20394;-83
2021/12/30 10:57:48;;;;;;;;;;;;;;;;;;5117259;28;20056;-82
2021/12/30 11:00:15;;;;;;;;;;;;;;;;;;5117343;28;20059;-84
2021/12/30 11:02:42;;;;;;;;;;;;;;;;;;5107870;28;20063;-83
2021/12/30 11:05:09;;;;;;;;;;;;;;;;;;5113090;28;20076;-83
2021/12/30 11:07:36;;;;;;;;;;;;;;;;;;5117158;28;20077;-84
2021/12/30 11:10:03;;;;;;;;;;;;;;;;;;5117243;28;20502;-83
2021/12/30 11:12:30;;;;;;;;;;;;;;;;;;5116869;28;19999;-84
2021/12/30 11:14:56;;;;;;;;;;;;;;;;;;5114362;28;20066;-83
2021/12/30 11:17:29;;;;;;;;;;;;;;;;;;5116895;28;20069;-83
2021/12/30 11:19:56;;;;;;;;;;;;;;;;;;5116229;28;19959;-83
2021/12/30 11:22:23;;;;;;;;;;;;;;;;;;5115064;28;20430;-82
2021/12/30 11:24:50;;;;;;;;;;;;;;;;;;5116691;28;20407;-86
2021/12/30 11:27:17;;;;;;;;;;;;;;;;;;5116657;28;20003;-83
2021/12/30 11:29:45;;;;;;;;;;;;;;;;;;5116390;28;20050;-83
2021/12/30 11:32:13;;;;;;;;;;;;;;;;;;5116444;28;20045;-83
2021/12/30 11:34:40;;;;;;;;;;;;;;;;;;5116147;28;19985;-81
2021/12/30 11:37:08;;;;;;;;;;;;;;;;;;5116737;28;20054;-82
2021/12/30 11:39:35;;;;;;;;;;;;;;;;;;5108899;28;19971;-83
2021/12/30 11:42:02;;;;;;;;;;;;;;;;;;5116026;28;20418;-83
2021/12/30 11:44:28;;;;;;;;;;;;;;;;;;5116319;28;20021;-82
2021/12/30 11:46:55;;;;;;;;;;;;;;;;;;5116323;28;20050;-83
2021/12/30 11:49:22;;;;;;;;;;;;;;;;;;5116500;28;20068;-83
2021/12/30 11:51:49;;;;;;;;;;;;;;;;;;5115276;28;20115;-82
2021/12/30 11:54:16;;;;;;;;;;;;;;;;;;5115849;28;20391;-81
2021/12/30 11:56:43;;;;;;;;;;;;;;;;;;5115728;28;20054;-83
2021/12/30 11:59:10;;;;;;;;;;;;;;;;;;5115870;28;20031;-84
2021/12/30 12:01:37;;;;;;;;;;;;;;;;;;5115594;28;20010;-87
2021/12/30 12:04:05;;;;;;;;;;;;;;;;;;5113440;28;20446;-84
2021/12/30 12:06:32;;;;;;;;;;;;;;;;;;5114901;28;19975;-82
2021/12/30 12:08:59;;;;;;;;;;;;;;;;;;5101749;28;19971;-84
2021/12/30 12:11:26;;;;;;;;;;;;;;;;;;5098114;28;19967;-84
2021/12/30 12:13:54;;;;;;;;;;;;;;;;;;5115762;28;20417;-83
2021/12/30 12:16:21;;;;;;;;;;;;;;;;;;5115724;28;19977;-82
2021/12/30 12:18:48;;;;;;;;;;;;;;;;;;5115782;28;20017;-80
2021/12/30 12:21:14;;;;;;;;;;;;;;;;;;5115419;28;20003;-81
2021/12/30 12:23:42;;;;;;;;;;;;;;;;;;5115717;28;19991;-82
2021/12/30 12:26:09;;;;;;;;;;;;;;;;;;5115520;28;19976;-82
2021/12/30 12:28:36;;;;;;;;;;;;;;;;;;5115976;28;20391;-82
2021/12/30 12:31:03;;;;;;;;;;;;;;;;;;5115831;28;20017;-81
2021/12/30 12:33:32;;;;;;;;;;;;;;;;;;5115061;28;19997;-81
2021/12/30 12:35:59;;;;;;;;;;;;;;;;;;5114706;28;19965;-81
2021/12/30 12:38:26;;;;;;;;;;;;;;;;;;5115562;28;19996;-81
2021/12/30 12:40:53;;;;;;;;;;;;;;;;;;5115624;28;20075;-83
2021/12/30 12:43:19;;;;;;;;;;;;;;;;;;5115597;28;20066;-82
2021/12/30 12:45:46;;;;;;;;;;;;;;;;;;5114602;28;20166;-83
2021/12/30 12:48:13;;;;;;;;;;;;;;;;;;5115073;28;20385;-82
2021/12/30 12:50:41;;;;;;;;;;;;;;;;;;5115229;28;20047;-82
2021/12/30 12:53:08;;;;;;;;;;;;;;;;;;5115382;28;19965;-83
2021/12/30 12:55:35;;;;;;;;;;;;;;;;;;5115300;28;20093;-83
2021/12/30 12:58:02;;;;;;;;;;;;;;;;;;5115051;28;20005;-83
2021/12/30 13:00:29;;;;;;;;;;;;;;;;;;5114973;28;20486;-83
2021/12/30 13:02:56;;;;;;;;;;;;;;;;;;5114723;28;20038;-83
2021/12/30 13:05:23;;;;;;;;;;;;;;;;;;5114462;28;19977;-84
2021/12/30 13:07:51;;;;;;;;;;;;;;;;;;5115155;28;20061;-84
2021/12/30 13:10:19;;;;;;;;;;;;;;;;;;5114542;28;19969;-84
2021/12/30 13:12:47;;;;;;;;;;;;;;;;;;5114873;28;20022;-84
2021/12/30 13:15:14;;;;;;;;;;;;;;;;;;5114851;28;19965;-84
2021/12/30 13:17:43;;;;;;;;;;;;;;;;;;5114706;28;20060;-83
2021/12/30 13:20:10;;;;;;;;;;;;;;;;;;5113779;28;20047;-83
2021/12/30 13:22:37;;;;;;;;;;;;;;;;;;5114330;28;19994;-83
2021/12/30 13:25:04;;;;;;;;;;;;;;;;;;5114063;28;19980;-85
2021/12/30 13:27:31;;;;;;;;;;;;;;;;;;5113654;28;19996;-83
2021/12/30 13:29:58;;;;;;;;;;;;;;;;;;5114001;28;19965;-85
2021/12/30 13:32:25;;;;;;;;;;;;;;;;;;5113557;28;19966;-86
2021/12/30 13:34:52;;;;;;;;;;;;;;;;;;5114208;28;20008;-84
2021/12/30 13:37:19;;;;;;;;;;;;;;;;;;5113982;28;20009;-84
2021/12/30 13:39:47;;;;;;;;;;;;;;;;;;5114413;28;19968;-84
2021/12/30 13:42:14;;;;;;;;;;;;;;;;;;5114378;28;19971;-84
2021/12/30 13:44:41;;;;;;;;;;;;;;;;;;5114172;28;19957;-84
2021/12/30 13:47:08;;;;;;;;;;;;;;;;;;5114197;28;20381;-85
2021/12/30 13:49:35;;;;;;;;;;;;;;;;;;5114272;28;20407;-85
2021/12/30 13:52:02;;;;;;;;;;;;;;;;;;5114723;28;20056;-84
2021/12/30 13:54:29;;;;;;;;;;;;;;;;;;5112741;28;20060;-84
2021/12/30 13:56:56;;;;;;;;;;;;;;;;;;5114032;28;20037;-84
2021/12/30 13:59:23;;;;;;;;;;;;;;;;;;5114007;28;20413;-84
2021/12/30 14:01:50;;;;;;;;;;;;;;;;;;5114339;28;20083;-84
2021/12/30 14:04:18;;;;;;;;;;;;;;;;;;5114099;28;20003;-83
2021/12/30 14:06:45;;;;;;;;;;;;;;;;;;5114020;28;20323;-86
2021/12/30 14:09:12;;;;;;;;;;;;;;;;;;5114203;28;20008;-86
2021/12/30 14:11:40;;;;;;;;;;;;;;;;;;5114126;28;20017;-86
2021/12/30 14:14:07;;;;;;;;;;;;;;;;;;5113670;28;20341;-87
2021/12/30 14:16:34;;;;;;;;;;;;;;;;;;5118046;28;19971;-86
2021/12/30 14:19:01;;;;;;;;;;;;;;;;;;5118571;27;19973;-87
2021/12/30 14:21:28;;;;;;;;;;;;;;;;;;5118322;28;20012;-86
2021/12/30 14:23:55;;;;;;;;;;;;;;;;;;5118149;28;20059;-86
2021/12/30 14:26:22;;;;;;;;;;;;;;;;;;5117860;28;20432;-86
2021/12/30 14:28:49;;;;;;;;;;;;;;;;;;5118673;28;20004;-87
2021/12/30 14:31:16;;;;;;;;;;;;;;;;;;5118311;28;20041;-85
2021/12/30 14:33:43;;;;;;;;;;;;;;;;;;5117727;27;20052;-85
2021/12/30 14:36:10;;;;;;;;;;;;;;;;;;5116632;28;20057;-86
2021/12/30 14:38:37;;;;;;;;;;;;;;;;;;5117735;28;20060;-86
2021/12/30 14:41:04;;;;;;;;;;;;;;;;;;5117738;28;20328;-86
2021/12/30 14:43:31;;;;;;;;;;;;;;;;;;5117985;28;20039;-87
2021/12/30 14:45:58;;;;;;;;;;;;;;;;;;5117582;28;20038;-87
2021/12/30 14:48:29;;;;;;;;;;;;;;;;;;5117887;28;19974;-87
2021/12/30 14:50:56;;;;;;;;;;;;;;;;;;5117757;28;19965;-88
2021/12/30 14:53:27;;;;;;;;;;;;;;;;;;5117579;28;20064;-87
2021/12/30 14:55:54;;;;;;;;;;;;;;;;;;5117353;28;20464;-86
2021/12/30 14:58:21;;;;;;;;;;;;;;;;;;5117907;28;19963;-87
2021/12/30 15:00:49;;;;;;;;;;;;;;;;;;5116610;28;20051;-87
2021/12/30 15:03:16;;;;;;;;;;;;;;;;;;5117471;28;19965;-86
2021/12/30 15:05:43;;;;;;;;;;;;;;;;;;5117033;28;20078;-85
2021/12/30 15:08:10;;;;;;;;;;;;;;;;;;5117610;28;19994;-86
2021/12/30 15:10:37;;;;;;;;;;;;;;;;;;5117110;28;19972;-86
2021/12/30 15:13:05;;;;;;;;;;;;;;;;;;5117075;28;20505;-86
2021/12/30 15:15:32;;;;;;;;;;;;;;;;;;5117075;28;20414;-85
2021/12/30 15:17:59;;;;;;;;;;;;;;;;;;5117177;28;20058;-87
2021/12/30 15:20:29;;;;;;;;;;;;;;;;;;5116977;28;19986;-86
2021/12/30 15:22:56;;;;;;;;;;;;;;;;;;5116903;28;20485;-87
2021/12/30 15:25:23;;;;;;;;;;;;;;;;;;5117033;28;19963;-86
2021/12/30 15:27:50;;;;;;;;;;;;;;;;;;5116515;28;20438;-85
2021/12/30 15:30:18;;;;;;;;;;;;;;;;;;5116870;28;19969;-86
2021/12/30 15:32:48;;;;;;;;;;;;;;;;;;5116805;28;19964;-85
2021/12/30 15:35:15;;;;;;;;;;;;;;;;;;5116437;28;19963;-85
2021/12/30 15:37:42;;;;;;;;;;;;;;;;;;5116130;28;20486;-85
2021/12/30 15:40:09;;;;;;;;;;;;;;;;;;5116557;28;20020;-85
2021/12/30 15:42:36;;;;;;;;;;;;;;;;;;5116978;28;19998;-84
2021/12/30 15:45:03;;;;;;;;;;;;;;;;;;5116361;28;20076;-85
2021/12/30 15:47:30;;;;;;;;;;;;;;;;;;5115798;28;20523;-86
2021/12/30 15:49:57;;;;;;;;;;;;;;;;;;5116274;28;20059;-86
2021/12/30 15:52:24;;;;;;;;;;;;;;;;;;5116660;28;20163;-86
2021/12/30 15:54:51;;;;;;;;;;;;;;;;;;5116429;28;19965;-86
2021/12/30 15:57:20;;;;;;;;;;;;;;;;;;5116728;28;20005;-87
2021/12/30 15:59:47;;;;;;;;;;;;;;;;;;5116414;28;19982;-87
2021/12/30 16:02:14;;;;;;;;;;;;;;;;;;5116194;28;20064;-85
2021/12/30 16:04:41;;;;;;;;;;;;;;;;;;5116412;28;20054;-86
2021/12/30 16:07:08;;;;;;;;;;;;;;;;;;5116208;28;20087;-86
2021/12/30 16:09:35;;;;;;;;;;;;;;;;;;5116799;28;20069;-86
2021/12/30 16:12:02;;;;;;;;;;;;;;;;;;5116433;28;20399;-86
2021/12/30 16:14:29;;;;;;;;;;;;;;;;;;5117385;28;20453;-87
2021/12/30 16:16:56;;;;;;;;;;;;;;;;;;5116090;28;20068;-85
2021/12/30 16:19:23;;;;;;;;;;;;;;;;;;5116356;28;19999;-86
2021/12/30 16:21:50;;;;;;;;;;;;;;;;;;5117207;28;19998;-85
2021/12/30 16:24:17;;;;;;;;;;;;;;;;;;5116069;28;20067;-85
2021/12/30 16:26:44;;;;;;;;;;;;;;;;;;5115596;28;20077;-86
2021/12/30 16:29:11;;;;;;;;;;;;;;;;;;5116884;28;19967;-86
2021/12/30 16:31:38;;;;;;;;;;;;;;;;;;5115828;28;20056;-86
2021/12/30 16:34:05;;;;;;;;;;;;;;;;;;5116034;27;20024;-86
2021/12/30 16:36:32;;;;;;;;;;;;;;;;;;5115860;28;20056;-86
2021/12/30 16:38:59;;;;;;;;;;;;;;;;;;5114770;28;20403;-86
2021/12/30 16:41:26;;;;;;;;;;;;;;;;;;5115910;28;20402;-86
2021/12/30 16:43:55;;;;;;;;;;;;;;;;;;5115764;28;19992;-86